sensor_id;sensor_type;location;lat;lon;timestamp;pressure;altitude;pressure_sealevel;temperature;humidity
5595;BME280;1003;48.002;7.788;2022-12-18T00:01:18;100300.00;;;-5.64;100.00
5595;BME280;1003;48.002;7.788;2022-12-18T00:03:46;100297.06;;;-5.48;100.00
5595;BME280;1003;48.002;7.788;2022-12-18T00:06:13;100280.84;;;-5.58;100.00
5595;BME280;1003;48.002;7.788;2022-12-18T00:08:41;100299.63;;;-5.35;100.00
5595;BME280;1003;48.002;7.788;2022-12-18T00:11:12;100304.44;;;-5.37;100.00
5595;BME280;1003;48.002;7.788;2022-12-18T00:13:40;100308.31;;;-5.62;100.00
5595;BME280;1003;48.002;7.788;2022-12-18T00:16:10;100302.13;;;-5.69;100.00
5595;BME280;1003;48.002;7.788;2022-12-18T00:18:38;100314.78;;;-5.74;100.00
5595;BME280;1003;48.002;7.788;2022-12-18T00:21:09;100325.84;;;-5.68;100.00
5595;BME280;1003;48.002;7.788;2022-12-18T00:23:37;100322.47;;;-5.70;100.00
5595;BME280;1003;48.002;7.788;2022-12-18T00:26:07;100323.06;;;-5.72;100.00
5595;BME280;1003;48.002;7.788;2022-12-18T00:28:35;100326.50;;;-5.70;100.00
5595;BME280;1003;48.002;7.788;2022-12-18T00:31:03;100330.09;;;-5.65;100.00
5595;BME280;1003;48.002;7.788;2022-12-18T00:33:31;100341.66;;;-5.52;100.00
5595;BME280;1003;48.002;7.788;2022-12-18T00:36:02;100333.94;;;-5.69;100.00
5595;BME280;1003;48.002;7.788;2022-12-18T00:38:30;100330.63;;;-5.81;100.00
5595;BME280;1003;48.002;7.788;2022-12-18T00:40:57;100319.00;;;-5.95;100.00
5595;BME280;1003;48.002;7.788;2022-12-18T00:43:24;100331.34;;;-5.94;100.00
5595;BME280;1003;48.002;7.788;2022-12-18T00:45:50;100330.72;;;-5.91;100.00
5595;BME280;1003;48.002;7.788;2022-12-18T00:48:17;100341.56;;;-5.76;100.00
5595;BME280;1003;48.002;7.788;2022-12-18T00:50:45;100335.47;;;-5.93;100.00
5595;BME280;1003;48.002;7.788;2022-12-18T00:53:13;100327.69;;;-5.87;100.00
5595;BME280;1003;48.002;7.788;2022-12-18T00:55:41;100332.81;;;-5.84;100.00
5595;BME280;1003;48.002;7.788;2022-12-18T00:58:09;100336.03;;;-5.85;100.00
5595;BME280;1003;48.002;7.788;2022-12-18T01:00:38;100343.22;;;-5.98;100.00
5595;BME280;1003;48.002;7.788;2022-12-18T01:03:05;100346.81;;;-6.05;100.00
5595;BME280;1003;48.002;7.788;2022-12-18T01:05:33;100336.13;;;-5.95;100.00
5595;BME280;1003;48.002;7.788;2022-12-18T01:08:00;100326.75;;;-5.89;100.00
5595;BME280;1003;48.002;7.788;2022-12-18T01:10:29;100328.13;;;-5.93;100.00
5595;BME280;1003;48.002;7.788;2022-12-18T01:12:55;100336.78;;;-5.86;100.00
5595;BME280;1003;48.002;7.788;2022-12-18T01:15:23;100339.66;;;-5.92;100.00
5595;BME280;1003;48.002;7.788;2022-12-18T01:17:52;100348.66;;;-5.91;100.00
5595;BME280;1003;48.002;7.788;2022-12-18T01:20:19;100331.84;;;-6.20;100.00
5595;BME280;1003;48.002;7.788;2022-12-18T01:22:46;100344.72;;;-6.22;100.00
5595;BME280;1003;48.002;7.788;2022-12-18T01:25:13;100351.34;;;-6.31;100.00
5595;BME280;1003;48.002;7.788;2022-12-18T01:27:42;100352.25;;;-6.19;100.00
5595;BME280;1003;48.002;7.788;2022-12-18T01:30:11;100358.88;;;-6.18;100.00
5595;BME280;1003;48.002;7.788;2022-12-18T01:32:38;100372.72;;;-6.19;100.00
5595;BME280;1003;48.002;7.788;2022-12-18T01:35:07;100355.09;;;-6.25;100.00
5595;BME280;1003;48.002;7.788;2022-12-18T01:37:34;100357.75;;;-6.12;100.00
5595;BME280;1003;48.002;7.788;2022-12-18T01:40:01;100359.94;;;-6.15;100.00
5595;BME280;1003;48.002;7.788;2022-12-18T01:42:28;100357.84;;;-6.10;100.00
5595;BME280;1003;48.002;7.788;2022-12-18T01:45:01;100369.47;;;-6.07;100.00
5595;BME280;1003;48.002;7.788;2022-12-18T01:47:35;100366.22;;;-5.96;100.00
5595;BME280;1003;48.002;7.788;2022-12-18T01:50:09;100371.97;;;-5.96;100.00
5595;BME280;1003;48.002;7.788;2022-12-18T01:52:38;100365.25;;;-5.98;100.00
5595;BME280;1003;48.002;7.788;2022-12-18T01:55:09;100376.72;;;-5.97;100.00
5595;BME280;1003;48.002;7.788;2022-12-18T01:57:39;100368.22;;;-6.02;100.00
5595;BME280;1003;48.002;7.788;2022-12-18T02:00:14;100372.03;;;-6.06;100.00
5595;BME280;1003;48.002;7.788;2022-12-18T02:02:43;100391.56;;;-5.96;100.00
5595;BME280;1003;48.002;7.788;2022-12-18T02:05:15;100378.97;;;-6.00;100.00
5595;BME280;1003;48.002;7.788;2022-12-18T02:07:52;100384.63;;;-6.01;100.00
5595;BME280;1003;48.002;7.788;2022-12-18T02:10:29;100377.88;;;-6.04;100.00
5595;BME280;1003;48.002;7.788;2022-12-18T02:13:06;100373.34;;;-5.99;100.00
5595;BME280;1003;48.002;7.788;2022-12-18T02:15:45;100385.13;;;-6.05;100.00
5595;BME280;1003;48.002;7.788;2022-12-18T02:18:21;100378.53;;;-6.06;100.00
5595;BME280;1003;48.002;7.788;2022-12-18T02:20:55;100392.06;;;-6.00;100.00
5595;BME280;1003;48.002;7.788;2022-12-18T02:23:49;100395.50;;;-6.08;100.00
5595;BME280;1003;48.002;7.788;2022-12-18T02:26:26;100398.59;;;-6.11;100.00
5595;BME280;1003;48.002;7.788;2022-12-18T02:29:00;100389.09;;;-6.18;100.00
5595;BME280;1003;48.002;7.788;2022-12-18T02:31:36;100382.88;;;-6.24;100.00
5595;BME280;1003;48.002;7.788;2022-12-18T02:34:08;100381.16;;;-6.25;100.00
5595;BME280;1003;48.002;7.788;2022-12-18T02:36:38;100384.94;;;-6.19;100.00
5595;BME280;1003;48.002;7.788;2022-12-18T02:39:11;100373.44;;;-6.20;100.00
5595;BME280;1003;48.002;7.788;2022-12-18T02:41:40;100374.00;;;-6.34;100.00
5595;BME280;1003;48.002;7.788;2022-12-18T02:44:10;100358.28;;;-6.48;100.00
5595;BME280;1003;48.002;7.788;2022-12-18T02:46:41;100362.03;;;-6.41;100.00
5595;BME280;1003;48.002;7.788;2022-12-18T02:49:38;100366.44;;;-6.47;100.00
5595;BME280;1003;48.002;7.788;2022-12-18T02:52:15;100363.91;;;-6.49;100.00
5595;BME280;1003;48.002;7.788;2022-12-18T02:54:57;100376.84;;;-6.40;100.00
5595;BME280;1003;48.002;7.788;2022-12-18T02:57:36;100351.13;;;-6.67;100.00
5595;BME280;1003;48.002;7.788;2022-12-18T03:00:12;100369.41;;;-6.51;100.00
5595;BME280;1003;48.002;7.788;2022-12-18T03:02:47;100355.38;;;-6.54;100.00
5595;BME280;1003;48.002;7.788;2022-12-18T03:05:23;100348.28;;;-6.51;100.00
5595;BME280;1003;48.002;7.788;2022-12-18T03:07:59;100352.53;;;-6.48;100.00
5595;BME280;1003;48.002;7.788;2022-12-18T03:10:32;100361.31;;;-6.40;100.00
5595;BME280;1003;48.002;7.788;2022-12-18T03:13:06;100359.84;;;-6.48;100.00
5595;BME280;1003;48.002;7.788;2022-12-18T03:15:40;100368.03;;;-6.48;100.00
5595;BME280;1003;48.002;7.788;2022-12-18T03:18:13;100363.47;;;-6.33;100.00
5595;BME280;1003;48.002;7.788;2022-12-18T03:20:44;100374.81;;;-6.23;100.00
5595;BME280;1003;48.002;7.788;2022-12-18T03:23:18;100368.66;;;-6.40;100.00
5595;BME280;1003;48.002;7.788;2022-12-18T03:25:51;100366.81;;;-6.43;100.00
5595;BME280;1003;48.002;7.788;2022-12-18T03:28:22;100362.03;;;-6.41;100.00
5595;BME280;1003;48.002;7.788;2022-12-18T03:30:56;100364.47;;;-6.41;100.00
5595;BME280;1003;48.002;7.788;2022-12-18T03:33:30;100359.84;;;-6.48;100.00
5595;BME280;1003;48.002;7.788;2022-12-18T03:35:59;100372.09;;;-6.48;100.00
5595;BME280;1003;48.002;7.788;2022-12-18T03:38:26;100365.03;;;-6.55;100.00
5595;BME280;1003;48.002;7.788;2022-12-18T03:41:01;100363.28;;;-6.56;100.00
5595;BME280;1003;48.002;7.788;2022-12-18T03:43:41;100370.13;;;-6.52;100.00
5595;BME280;1003;48.002;7.788;2022-12-18T03:46:18;100367.69;;;-6.52;100.00
5595;BME280;1003;48.002;7.788;2022-12-18T03:48:52;100365.03;;;-6.55;100.00
5595;BME280;1003;48.002;7.788;2022-12-18T03:51:27;100357.47;;;-6.69;100.00
5595;BME280;1003;48.002;7.788;2022-12-18T03:53:59;100359.19;;;-6.68;100.00
5595;BME280;1003;48.002;7.788;2022-12-18T03:56:31;100363.69;;;-6.62;100.00
5595;BME280;1003;48.002;7.788;2022-12-18T03:59:03;100367.94;;;-6.49;100.00
5595;BME280;1003;48.002;7.788;2022-12-18T04:01:34;100374.06;;;-6.54;100.00
5595;BME280;1003;48.002;7.788;2022-12-18T04:04:04;100368.94;;;-6.57;100.00
5595;BME280;1003;48.002;7.788;2022-12-18T04:06:34;100365.25;;;-6.52;100.00
5595;BME280;1003;48.002;7.788;2022-12-18T04:09:03;100362.06;;;-6.51;100.00
5595;BME280;1003;48.002;7.788;2022-12-18T04:11:31;100359.91;;;-6.58;100.00
5595;BME280;1003;48.002;7.788;2022-12-18T04:13:59;100365.41;;;-6.61;100.00
5595;BME280;1003;48.002;7.788;2022-12-18T04:16:27;100355.84;;;-6.58;100.00
5595;BME280;1003;48.002;7.788;2022-12-18T04:18:54;100357.34;;;-6.60;100.00
5595;BME280;1003;48.002;7.788;2022-12-18T04:21:22;100361.75;;;-6.66;100.00
5595;BME280;1003;48.002;7.788;2022-12-18T04:23:49;100341.41;;;-6.87;100.00
5595;BME280;1003;48.002;7.788;2022-12-18T04:26:16;100354.94;;;-6.70;100.00
5595;BME280;1003;48.002;7.788;2022-12-18T04:28:43;100352.38;;;-6.72;100.00
5595;BME280;1003;48.002;7.788;2022-12-18T04:31:13;100336.34;;;-6.78;100.00
5595;BME280;1003;48.002;7.788;2022-12-18T04:33:40;100342.72;;;-6.80;100.00
5595;BME280;1003;48.002;7.788;2022-12-18T04:36:07;100341.53;;;-6.96;100.00
5595;BME280;1003;48.002;7.788;2022-12-18T04:38:34;100339.56;;;-6.90;100.00
5595;BME280;1003;48.002;7.788;2022-12-18T04:41:01;100346.50;;;-6.84;100.00
5595;BME280;1003;48.002;7.788;2022-12-18T04:43:29;100347.50;;;-6.82;100.00
5595;BME280;1003;48.002;7.788;2022-12-18T04:46:02;100338.84;;;-6.89;100.00
5595;BME280;1003;48.002;7.788;2022-12-18T04:48:31;100345.19;;;-6.91;100.00
5595;BME280;1003;48.002;7.788;2022-12-18T04:50:59;100334.00;;;-6.99;100.00
5595;BME280;1003;48.002;7.788;2022-12-18T04:53:26;100339.47;;;-7.01;100.00
5595;BME280;1003;48.002;7.788;2022-12-18T04:56:04;100367.06;;;-6.82;100.00
5595;BME280;1003;48.002;7.788;2022-12-18T04:58:31;100339.72;;;-6.88;100.00
5595;BME280;1003;48.002;7.788;2022-12-18T05:00:58;100345.19;;;-6.80;100.00
5595;BME280;1003;48.002;7.788;2022-12-18T05:03:26;100338.97;;;-6.97;100.00
5595;BME280;1003;48.002;7.788;2022-12-18T05:05:54;100345.34;;;-6.99;100.00
5595;BME280;1003;48.002;7.788;2022-12-18T05:08:21;100337.91;;;-7.11;100.00
5595;BME280;1003;48.002;7.788;2022-12-18T05:10:48;100335.69;;;-6.98;100.00
5595;BME280;1003;48.002;7.788;2022-12-18T05:13:15;100336.81;;;-7.04;100.00
5595;BME280;1003;48.002;7.788;2022-12-18T05:15:42;100334.00;;;-7.09;100.00
5595;BME280;1003;48.002;7.788;2022-12-18T05:18:09;100332.91;;;-7.13;100.00
5595;BME280;1003;48.002;7.788;2022-12-18T05:20:36;100338.03;;;-7.09;100.00
5595;BME280;1003;48.002;7.788;2022-12-18T05:23:05;100332.03;;;-7.03;100.00
5595;BME280;1003;48.002;7.788;2022-12-18T05:25:32;100334.56;;;-6.91;100.00
5595;BME280;1003;48.002;7.788;2022-12-18T05:27:59;100342.91;;;-6.99;100.00
5595;BME280;1003;48.002;7.788;2022-12-18T05:30:26;100335.81;;;-7.06;100.00
5595;BME280;1003;48.002;7.788;2022-12-18T05:32:54;100328.75;;;-7.03;100.00
5595;BME280;1003;48.002;7.788;2022-12-18T05:35:21;100321.16;;;-7.06;100.00
5595;BME280;1003;48.002;7.788;2022-12-18T05:37:48;100324.50;;;-7.26;100.00
5595;BME280;1003;48.002;7.788;2022-12-18T05:40:16;100324.25;;;-7.29;100.00
5595;BME280;1003;48.002;7.788;2022-12-18T05:42:43;100322.91;;;-7.26;100.00
5595;BME280;1003;48.002;7.788;2022-12-18T05:45:10;100322.19;;;-7.25;100.00
5595;BME280;1003;48.002;7.788;2022-12-18T05:47:37;100325.38;;;-7.26;100.00
5595;BME280;1003;48.002;7.788;2022-12-18T05:50:07;100329.88;;;-7.20;100.00
5595;BME280;1003;48.002;7.788;2022-12-18T05:52:34;100328.13;;;-7.21;100.00
5595;BME280;1003;48.002;7.788;2022-12-18T05:55:01;100334.13;;;-7.18;100.00
5595;BME280;1003;48.002;7.788;2022-12-18T05:57:29;100335.47;;;-7.21;100.00
5595;BME280;1003;48.002;7.788;2022-12-18T05:59:56;100340.88;;;-7.25;100.00
5595;BME280;1003;48.002;7.788;2022-12-18T06:02:23;100344.28;;;-7.33;100.00
5595;BME280;1003;48.002;7.788;2022-12-18T06:04:50;100334.13;;;-7.38;100.00
5595;BME280;1003;48.002;7.788;2022-12-18T06:07:17;100347.09;;;-7.39;100.00
5595;BME280;1003;48.002;7.788;2022-12-18T06:09:44;100342.69;;;-7.43;100.00
5595;BME280;1003;48.002;7.788;2022-12-18T06:12:11;100348.31;;;-7.44;100.00
5595;BME280;1003;48.002;7.788;2022-12-18T06:14:40;100345.50;;;-7.49;100.00
5595;BME280;1003;48.002;7.788;2022-12-18T06:17:07;100350.50;;;-7.57;100.00
5595;BME280;1003;48.002;7.788;2022-12-18T06:19:34;100369.91;;;-7.38;100.00
5595;BME280;1003;48.002;7.788;2022-12-18T06:22:01;100360.28;;;-7.47;100.00
5595;BME280;1003;48.002;7.788;2022-12-18T06:24:28;100371.13;;;-7.44;100.00
5595;BME280;1003;48.002;7.788;2022-12-18T06:26:55;100376.88;;;-7.43;100.00
5595;BME280;1003;48.002;7.788;2022-12-18T06:29:22;100382.38;;;-7.46;100.00
5595;BME280;1003;48.002;7.788;2022-12-18T06:31:50;100378.34;;;-7.55;100.00
5595;BME280;1003;48.002;7.788;2022-12-18T06:34:17;100385.66;;;-7.55;100.00
5595;BME280;1003;48.002;7.788;2022-12-18T06:36:45;100398.34;;;-7.49;100.00
5595;BME280;1003;48.002;7.788;2022-12-18T06:39:12;100390.91;;;-7.51;100.00
5595;BME280;1003;48.002;7.788;2022-12-18T06:41:39;100391.88;;;-7.49;100.00
5595;BME280;1003;48.002;7.788;2022-12-18T06:44:06;100391.50;;;-7.53;100.00
5595;BME280;1003;48.002;7.788;2022-12-18T06:46:33;100402.03;;;-7.34;100.00
5595;BME280;1003;48.002;7.788;2022-12-18T06:49:01;100402.88;;;-7.44;100.00
5595;BME280;1003;48.002;7.788;2022-12-18T06:51:28;100401.91;;;-7.46;100.00
5595;BME280;1003;48.002;7.788;2022-12-18T06:53:55;100402.75;;;-7.45;100.00
5595;BME280;1003;48.002;7.788;2022-12-18T06:56:22;100400.94;;;-7.48;100.00
5595;BME280;1003;48.002;7.788;2022-12-18T06:58:49;100412.50;;;-7.66;100.00
5595;BME280;1003;48.002;7.788;2022-12-18T07:01:16;100397.63;;;-7.69;100.00
5595;BME280;1003;48.002;7.788;2022-12-18T07:03:43;100401.38;;;-7.72;100.00
5595;BME280;1003;48.002;7.788;2022-12-18T07:06:19;100395.34;;;-7.86;100.00
5595;BME280;1003;48.002;7.788;2022-12-18T07:08:48;100392.91;;;-7.96;100.00
5595;BME280;1003;48.002;7.788;2022-12-18T07:11:17;100396.56;;;-8.01;100.00
5595;BME280;1003;48.002;7.788;2022-12-18T07:13:46;100398.38;;;-7.99;100.00
5595;BME280;1003;48.002;7.788;2022-12-18T07:16:17;100393.00;;;-8.05;100.00
5595;BME280;1003;48.002;7.788;2022-12-18T07:18:45;100402.88;;;-8.03;100.00
5595;BME280;1003;48.002;7.788;2022-12-18T07:21:18;100396.75;;;-8.08;100.00
5595;BME280;1003;48.002;7.788;2022-12-18T07:23:46;100403.56;;;-8.14;100.00
5595;BME280;1003;48.002;7.788;2022-12-18T07:26:15;100408.34;;;-8.16;100.00
5595;BME280;1003;48.002;7.788;2022-12-18T07:28:42;100408.34;;;-8.16;100.00
5595;BME280;1003;48.002;7.788;2022-12-18T07:31:13;100410.50;;;-8.19;100.00
5595;BME280;1003;48.002;7.788;2022-12-18T07:33:41;100424.09;;;-8.12;100.00
5595;BME280;1003;48.002;7.788;2022-12-18T07:36:10;100434.06;;;-8.09;100.00
5595;BME280;1003;48.002;7.788;2022-12-18T07:38:39;100435.75;;;-8.19;100.00
5595;BME280;1003;48.002;7.788;2022-12-18T07:41:09;100432.41;;;-8.29;100.00
5595;BME280;1003;48.002;7.788;2022-12-18T07:43:37;100452.53;;;-8.32;100.00
5595;BME280;1003;48.002;7.788;2022-12-18T07:46:05;100450.88;;;-8.23;100.00
5595;BME280;1003;48.002;7.788;2022-12-18T07:48:32;100457.88;;;-8.07;100.00
5595;BME280;1003;48.002;7.788;2022-12-18T07:51:00;100461.72;;;-7.90;100.00
5595;BME280;1003;48.002;7.788;2022-12-18T07:53:27;100469.31;;;-7.77;100.00
5595;BME280;1003;48.002;7.788;2022-12-18T07:55:57;100479.75;;;-7.59;100.00
5595;BME280;1003;48.002;7.788;2022-12-18T07:58:24;100483.31;;;-7.45;100.00
5595;BME280;1003;48.002;7.788;2022-12-18T08:00:51;100482.13;;;-7.30;100.00
5595;BME280;1003;48.002;7.788;2022-12-18T08:03:19;100484.72;;;-7.18;100.00
5595;BME280;1003;48.002;7.788;2022-12-18T08:05:46;100484.13;;;-7.16;100.00
5595;BME280;1003;48.002;7.788;2022-12-18T08:08:16;100481.44;;;-6.98;100.00
5595;BME280;1003;48.002;7.788;2022-12-18T08:10:43;100487.66;;;-6.81;100.00
5595;BME280;1003;48.002;7.788;2022-12-18T08:13:11;100483.63;;;-6.71;100.00
5595;BME280;1003;48.002;7.788;2022-12-18T08:15:38;100491.19;;;-6.68;100.00
5595;BME280;1003;48.002;7.788;2022-12-18T08:18:05;100493.88;;;-6.65;100.00
5595;BME280;1003;48.002;7.788;2022-12-18T08:20:32;100487.78;;;-6.80;100.00
5595;BME280;1003;48.002;7.788;2022-12-18T08:22:59;100469.81;;;-6.91;100.00
5595;BME280;1003;48.002;7.788;2022-12-18T08:25:26;100471.03;;;-6.85;100.00
5595;BME280;1003;48.002;7.788;2022-12-18T08:27:54;100480.22;;;-6.83;100.00
5595;BME280;1003;48.002;7.788;2022-12-18T08:30:23;100474.97;;;-6.77;100.00
5595;BME280;1003;48.002;7.788;2022-12-18T08:32:52;100464.09;;;-6.91;100.00
5595;BME280;1003;48.002;7.788;2022-12-18T08:35:19;100467.47;;;-6.79;100.00
5595;BME280;1003;48.002;7.788;2022-12-18T08:37:47;100458.91;;;-6.64;100.00
5595;BME280;1003;48.002;7.788;2022-12-18T08:40:14;100450.97;;;-6.51;100.00
5595;BME280;1003;48.002;7.788;2022-12-18T08:42:41;100453.38;;;-6.41;100.00
5595;BME280;1003;48.002;7.788;2022-12-18T08:45:27;100453.97;;;-6.33;100.00
5595;BME280;1003;48.002;7.788;2022-12-18T08:47:54;100450.47;;;-6.15;100.00
5595;BME280;1003;48.002;7.788;2022-12-18T08:50:21;100456.19;;;-6.04;100.00
5595;BME280;1003;48.002;7.788;2022-12-18T08:52:48;100446.78;;;-6.42;100.00
5595;BME280;1003;48.002;7.788;2022-12-18T08:55:16;100445.63;;;-6.67;100.00
5595;BME280;1003;48.002;7.788;2022-12-18T08:57:43;100424.13;;;-6.81;100.00
5595;BME280;1003;48.002;7.788;2022-12-18T09:00:12;100422.91;;;-7.17;100.00
5595;BME280;1003;48.002;7.788;2022-12-18T09:02:41;100432.06;;;-6.94;100.00
5595;BME280;1003;48.002;7.788;2022-12-18T09:05:08;100436.34;;;-6.81;100.00
5595;BME280;1003;48.002;7.788;2022-12-18T09:07:35;100437.31;;;-6.79;100.00
5595;BME280;1003;48.002;7.788;2022-12-18T09:10:04;100433.28;;;-6.79;100.00
5595;BME280;1003;48.002;7.788;2022-12-18T09:12:31;100430.59;;;-6.72;100.00
5595;BME280;1003;48.002;7.788;2022-12-18T09:14:58;100426.78;;;-6.68;100.00
5595;BME280;1003;48.002;7.788;2022-12-18T09:17:25;100433.50;;;-6.66;100.00
5595;BME280;1003;48.002;7.788;2022-12-18T09:19:54;100441.03;;;-6.52;100.00
5595;BME280;1003;48.002;7.788;2022-12-18T09:22:20;100443.66;;;-6.61;100.00
5595;BME280;1003;48.002;7.788;2022-12-18T09:24:49;100442.41;;;-6.56;100.00
5595;BME280;1003;48.002;7.788;2022-12-18T09:27:16;100433.41;;;-6.67;100.00
5595;BME280;1003;48.002;7.788;2022-12-18T09:29:43;100443.66;;;-6.61;100.00
5595;BME280;1003;48.002;7.788;2022-12-18T09:32:10;100440.34;;;-6.62;100.00
5595;BME280;1003;48.002;7.788;2022-12-18T09:34:37;100437.66;;;-6.75;100.00
5595;BME280;1003;48.002;7.788;2022-12-18T09:37:05;100440.59;;;-6.69;100.00
5595;BME280;1003;48.002;7.788;2022-12-18T09:39:32;100452.31;;;-6.65;100.00
5595;BME280;1003;48.002;7.788;2022-12-18T09:42:03;100451.31;;;-6.56;100.00
5595;BME280;1003;48.002;7.788;2022-12-18T09:44:36;100465.00;;;-6.48;100.00
5595;BME280;1003;48.002;7.788;2022-12-18T09:47:14;100463.53;;;-6.46;100.00
5595;BME280;1003;48.002;7.788;2022-12-18T09:49:46;100454.34;;;-6.39;100.00
5595;BME280;1003;48.002;7.788;2022-12-18T09:52:22;100466.66;;;-6.27;100.00
5595;BME280;1003;48.002;7.788;2022-12-18T09:54:55;100462.72;;;-6.15;100.00
5595;BME280;1003;48.002;7.788;2022-12-18T09:57:25;100476.63;;;-6.03;100.00
5595;BME280;1003;48.002;7.788;2022-12-18T09:59:59;100466.72;;;-5.83;100.00
5595;BME280;1003;48.002;7.788;2022-12-18T10:02:31;100481.50;;;-5.82;100.00
5595;BME280;1003;48.002;7.788;2022-12-18T10:05:07;100463.88;;;-5.56;100.00
5595;BME280;1003;48.002;7.788;2022-12-18T10:07:55;100478.97;;;-5.39;100.00
5595;BME280;1003;48.002;7.788;2022-12-18T10:10:38;100482.78;;;-5.21;100.00
5595;BME280;1003;48.002;7.788;2022-12-18T10:13:19;100494.50;;;-5.17;100.00
5595;BME280;1003;48.002;7.788;2022-12-18T10:16:06;100476.13;;;-5.34;100.00
5595;BME280;1003;48.002;7.788;2022-12-18T10:19:06;100463.66;;;-5.03;100.00
5595;BME280;1003;48.002;7.788;2022-12-18T10:21:47;100465.59;;;-4.99;100.00
5595;BME280;1003;48.002;7.788;2022-12-18T10:24:32;100438.81;;;-5.08;100.00
5595;BME280;1003;48.002;7.788;2022-12-18T10:27:14;100453.13;;;-4.90;100.00
5595;BME280;1003;48.002;7.788;2022-12-18T10:29:43;100444.47;;;-5.09;100.00
5595;BME280;1003;48.002;7.788;2022-12-18T10:32:17;100439.22;;;-5.13;100.00
5595;BME280;1003;48.002;7.788;2022-12-18T10:34:49;100446.44;;;-4.81;100.00
5595;BME280;1003;48.002;7.788;2022-12-18T10:37:19;100442.47;;;-4.91;100.00
5595;BME280;1003;48.002;7.788;2022-12-18T10:40:09;100448.69;;;-4.61;100.00
5595;BME280;1003;48.002;7.788;2022-12-18T10:42:38;100442.28;;;-4.82;100.00
5595;BME280;1003;48.002;7.788;2022-12-18T10:45:15;100445.59;;;-4.70;100.00
5595;BME280;1003;48.002;7.788;2022-12-18T10:47:44;100448.03;;;-4.58;100.00
5595;BME280;1003;48.002;7.788;2022-12-18T10:50:24;100446.34;;;-4.47;100.00
5595;BME280;1003;48.002;7.788;2022-12-18T10:52:59;100451.25;;;-4.12;100.00
5595;BME280;1003;48.002;7.788;2022-12-18T10:55:33;100447.84;;;-4.03;100.00
5595;BME280;1003;48.002;7.788;2022-12-18T10:58:21;100441.28;;;-3.90;100.00
5595;BME280;1003;48.002;7.788;2022-12-18T11:01:06;100435.13;;;-3.97;100.00
5595;BME280;1003;48.002;7.788;2022-12-18T11:03:37;100431.13;;;-3.83;100.00
5595;BME280;1003;48.002;7.788;2022-12-18T11:06:09;100425.97;;;-3.75;100.00
5595;BME280;1003;48.002;7.788;2022-12-18T11:08:36;100405.84;;;-3.94;100.00
5595;BME280;1003;48.002;7.788;2022-12-18T11:11:16;100426.09;;;-3.85;100.00
5595;BME280;1003;48.002;7.788;2022-12-18T11:13:59;100435.44;;;-3.67;100.00
5595;BME280;1003;48.002;7.788;2022-12-18T11:16:29;100436.13;;;-3.70;100.00
5595;BME280;1003;48.002;7.788;2022-12-18T11:19:23;100446.66;;;-3.34;100.00
5595;BME280;1003;48.002;7.788;2022-12-18T11:21:52;100459.09;;;-2.81;100.00
5595;BME280;1003;48.002;7.788;2022-12-18T11:24:26;100459.47;;;-2.88;100.00
5595;BME280;1003;48.002;7.788;2022-12-18T11:26:57;100470.50;;;-2.44;100.00
5595;BME280;1003;48.002;7.788;2022-12-18T11:29:33;100480.44;;;-2.29;100.00
5595;BME280;1003;48.002;7.788;2022-12-18T11:32:29;100464.78;;;-2.82;100.00
5595;BME280;1003;48.002;7.788;2022-12-18T11:35:09;100466.63;;;-2.92;100.00
5595;BME280;1003;48.002;7.788;2022-12-18T11:37:41;100473.59;;;-2.73;100.00
5595;BME280;1003;48.002;7.788;2022-12-18T11:40:16;100472.53;;;-2.76;100.00
5595;BME280;1003;48.002;7.788;2022-12-18T11:42:53;100478.53;;;-2.73;100.00
5595;BME280;1003;48.002;7.788;2022-12-18T11:45:28;100452.34;;;-2.97;100.00
5595;BME280;1003;48.002;7.788;2022-12-18T11:48:05;100448.41;;;-2.95;100.00
5595;BME280;1003;48.002;7.788;2022-12-18T11:50:47;100461.88;;;-2.37;100.00
5595;BME280;1003;48.002;7.788;2022-12-18T11:53:15;100446.63;;;-2.45;100.00
5595;BME280;1003;48.002;7.788;2022-12-18T11:56:02;100420.13;;;-2.88;100.00
5595;BME280;1003;48.002;7.788;2022-12-18T11:58:46;100417.97;;;-3.09;100.00
5595;BME280;1003;48.002;7.788;2022-12-18T12:01:40;100412.81;;;-2.87;100.00
5595;BME280;1003;48.002;7.788;2022-12-18T12:04:39;100400.31;;;-3.03;100.00
5595;BME280;1003;48.002;7.788;2022-12-18T12:07:24;100404.59;;;-3.01;100.00
5595;BME280;1003;48.002;7.788;2022-12-18T12:10:06;100404.63;;;-3.12;100.00
5595;BME280;1003;48.002;7.788;2022-12-18T12:12:52;100401.31;;;-3.13;100.00
5595;BME280;1003;48.002;7.788;2022-12-18T12:15:35;100407.25;;;-2.84;100.00
5595;BME280;1003;48.002;7.788;2022-12-18T12:18:20;100395.09;;;-3.21;100.00
5595;BME280;1003;48.002;7.788;2022-12-18T12:21:00;100395.91;;;-2.96;100.00
5595;BME280;1003;48.002;7.788;2022-12-18T12:23:41;100396.81;;;-2.80;100.00
5595;BME280;1003;48.002;7.788;2022-12-18T12:26:20;100393.63;;;-2.66;100.00
5595;BME280;1003;48.002;7.788;2022-12-18T12:29:25;100387.97;;;-2.78;100.00
5595;BME280;1003;48.002;7.788;2022-12-18T12:32:15;100381.69;;;-2.86;100.00
5595;BME280;1003;48.002;7.788;2022-12-18T12:34:58;100381.72;;;-2.47;100.00
5595;BME280;1003;48.002;7.788;2022-12-18T12:37:44;100395.13;;;-2.28;100.00
5595;BME280;1003;48.002;7.788;2022-12-18T12:40:19;100405.34;;;-2.09;100.00
5595;BME280;1003;48.002;7.788;2022-12-18T12:42:55;100404.00;;;-2.17;100.00
5595;BME280;1003;48.002;7.788;2022-12-18T12:45:48;100415.91;;;-2.10;100.00
5595;BME280;1003;48.002;7.788;2022-12-18T12:48:31;100409.81;;;-2.30;100.00
5595;BME280;1003;48.002;7.788;2022-12-18T12:51:02;100407.91;;;-2.34;100.00
5595;BME280;1003;48.002;7.788;2022-12-18T12:53:36;100394.63;;;-2.23;100.00
5595;BME280;1003;48.002;7.788;2022-12-18T12:56:05;100392.28;;;-2.48;100.00
5595;BME280;1003;48.002;7.788;2022-12-18T12:58:45;100375.84;;;-2.62;100.00
5595;BME280;1003;48.002;7.788;2022-12-18T13:01:25;100390.19;;;-2.15;100.00
5595;BME280;1003;48.002;7.788;2022-12-18T13:04:10;100393.88;;;-1.80;100.00
5595;BME280;1003;48.002;7.788;2022-12-18T13:06:46;100395.56;;;-1.79;100.00
5595;BME280;1003;48.002;7.788;2022-12-18T13:09:17;100392.69;;;-1.72;100.00
5595;BME280;1003;48.002;7.788;2022-12-18T13:11:46;100401.09;;;-1.55;100.00
5595;BME280;1003;48.002;7.788;2022-12-18T13:14:34;100388.78;;;-1.55;100.00
5595;BME280;1003;48.002;7.788;2022-12-18T13:17:29;100394.41;;;-1.43;100.00
5595;BME280;1003;48.002;7.788;2022-12-18T13:20:09;100394.03;;;-1.35;100.00
5595;BME280;1003;48.002;7.788;2022-12-18T13:22:41;100387.06;;;-1.42;100.00
5595;BME280;1003;48.002;7.788;2022-12-18T13:25:36;100383.88;;;-1.26;100.00